Terminal Aerodrome Forecast
Issued by NWS Pittsburgh, PA

Current Version | Previous Version | Graphics & Text | Print | Product List | Glossary On
Versions: 1 2 3 4 5 6 7 8 9 10 11 12 13 14 15 16 17 18 19 20 21 22 23 24 25 26 27 28 29 30
000
FTUS41 KPBZ 232329
TAFPIT
TAF
KPIT 232329Z 2400/2506 21005KT P6SM -SHRA VCTS SCT015 BKN040CB
      TEMPO 2400/2403 3SM -TSRA BKN040CB
     FM240600 25004KT 2SM BR BKN015
     FM240800 26004KT 3SM BR SCT008
     FM241400 27006KT P6SM SCT050
     FM241800 28009KT P6SM BKN040=

USA.gov is the U.S. government's official web portal to all federal, state and local government web resources and services.